Time;durP1;ratioP1;P1;durP2;ratioP2;P2;SDS_P1;SDS_P2;PMS_P1;PMS_P2;Temp;Humidity;BMP_temperature;BMP_pressure;BME280_temperature;BME280_humidity;BME280_pressure;Samples;Min_cycle;Max_cycle;Signal;HPM_P1;HPM_P2
2022/10/20 04:02:39;;;;;;;19.33;17.23;;;12.80;99.90;;;;;;4975119;23;20479;-65
2022/10/20 04:05:06;;;;;;;19.63;16.57;;;12.80;99.90;;;;;;4977076;28;20929;-65
2022/10/20 04:07:33;;;;;;;22.23;18.00;;;12.80;99.90;;;;;;4978579;28;20537;-65
2022/10/20 04:10:01;;;;;;;19.17;17.17;;;12.80;99.90;;;;;;4978551;28;20458;-65
2022/10/20 04:12:28;;;;;;;20.40;18.30;;;12.80;99.90;;;;;;4979037;28;20561;-64
2022/10/20 04:14:55;;;;;;;21.47;19.23;;;12.80;99.90;;;;;;4978674;28;20513;-65
2022/10/20 04:17:21;;;;;;;21.80;18.07;;;12.80;99.90;;;;;;4980512;28;20489;-65
2022/10/20 04:19:49;;;;;;;20.87;18.80;;;12.80;99.90;;;;;;4979574;28;20507;-65
2022/10/20 04:22:16;;;;;;;21.90;18.53;;;12.70;99.90;;;;;;4979438;28;20533;-65
2022/10/20 04:24:43;;;;;;;21.57;19.10;;;12.70;99.90;;;;;;4979487;28;20513;-63
2022/10/20 04:27:09;;;;;;;22.97;18.70;;;12.80;99.90;;;;;;4979359;28;20509;-64
2022/10/20 04:29:36;;;;;;;34.30;20.27;;;12.80;99.90;;;;;;4979166;28;20454;-64
2022/10/20 04:32:03;;;;;;;23.07;18.50;;;12.70;99.90;;;;;;4978419;28;20529;-63
2022/10/20 04:34:30;;;;;;;22.23;18.93;;;12.60;99.90;;;;;;4978584;28;20798;-63
2022/10/20 04:36:58;;;;;;;24.60;19.20;;;12.60;99.90;;;;;;4978514;28;20519;-64
2022/10/20 04:39:25;;;;;;;22.00;18.50;;;12.60;99.90;;;;;;4978515;28;20439;-64
2022/10/20 04:41:51;;;;;;;24.20;19.10;;;12.60;99.90;;;;;;4978200;28;20477;-64
2022/10/20 04:44:18;;;;;;;21.10;18.87;;;12.70;99.90;;;;;;4978192;28;20458;-64
2022/10/20 04:46:45;;;;;;;27.37;20.47;;;12.60;99.90;;;;;;4978662;28;20941;-64
2022/10/20 04:49:12;;;;;;;21.00;18.07;;;12.70;99.90;;;;;;4978158;28;20478;-64
2022/10/20 04:51:38;;;;;;;29.40;19.33;;;12.70;99.90;;;;;;4977994;28;20515;-64
2022/10/20 04:54:06;;;;;;;20.33;18.23;;;12.70;99.90;;;;;;4978005;28;20455;-64
2022/10/20 04:56:33;;;;;;;24.57;20.50;;;12.70;99.90;;;;;;4978031;28;20462;-64
2022/10/20 04:59:00;;;;;;;23.90;18.60;;;12.70;99.90;;;;;;4980978;28;20478;-64
2022/10/20 05:01:28;;;;;;;24.33;19.90;;;12.70;99.90;;;;;;4979396;28;20573;-64
2022/10/20 05:03:55;;;;;;;26.00;21.00;;;12.60;99.90;;;;;;4977769;28;20454;-64
2022/10/20 05:06:23;;;;;;;22.33;19.87;;;12.60;99.90;;;;;;4977545;28;20461;-64
2022/10/20 05:08:52;;;;;;;25.60;20.30;;;12.60;99.90;;;;;;4977455;28;20490;-63
2022/10/20 05:11:21;;;;;;;29.90;20.30;;;12.50;99.90;;;;;;4977438;28;20906;-64
2022/10/20 05:13:48;;;;;;;23.70;19.47;;;12.50;99.90;;;;;;4977454;28;20466;-64
2022/10/20 05:16:16;;;;;;;20.40;18.30;;;12.50;99.90;;;;;;4976345;28;20463;-64
2022/10/20 05:18:44;;;;;;;22.03;19.13;;;12.50;99.90;;;;;;4977339;28;20543;-64
2022/10/20 05:21:12;;;;;;;22.37;19.73;;;12.50;99.90;;;;;;4977415;28;20533;-64
2022/10/20 05:23:40;;;;;;;23.77;19.13;;;12.50;99.90;;;;;;4977398;28;20493;-64
2022/10/20 05:26:09;;;;;;;24.20;19.47;;;12.50;99.90;;;;;;4977278;28;20505;-64
2022/10/20 05:28:38;;;;;;;22.97;19.30;;;12.50;99.90;;;;;;4977099;28;20501;-64
2022/10/20 05:31:07;;;;;;;26.60;19.63;;;12.50;99.90;;;;;;4976917;28;20981;-65
2022/10/20 05:33:35;;;;;;;20.83;18.00;;;12.50;99.90;;;;;;4977042;28;20465;-64
2022/10/20 05:36:08;;;;;;;23.47;20.70;;;12.50;99.90;;;;;;4977021;28;20509;-65
2022/10/20 05:38:35;;;;;;;24.07;20.33;;;12.50;99.90;;;;;;4977451;28;20438;-64
2022/10/20 05:41:05;;;;;;;22.17;19.87;;;12.50;99.90;;;;;;4977013;28;20483;-65
2022/10/20 05:43:32;;;;;;;23.07;19.00;;;12.50;99.90;;;;;;4976837;28;20447;-65
2022/10/20 05:46:00;;;;;;;20.70;18.13;;;12.50;99.90;;;;;;4976705;28;20517;-65
2022/10/20 05:48:27;;;;;;;24.37;18.67;;;12.50;99.90;;;;;;4976680;28;20482;-63
2022/10/20 05:50:53;;;;;;;23.03;19.43;;;12.50;99.90;;;;;;4976584;28;20538;-65
2022/10/20 05:53:20;;;;;;;20.73;18.57;;;12.50;99.90;;;;;;4977124;28;20517;-64
2022/10/20 05:55:47;;;;;;;20.53;18.33;;;12.60;99.90;;;;;;4976594;28;20459;-64
2022/10/20 05:58:14;;;;;;;22.97;20.10;;;12.50;99.90;;;;;;4976314;28;20815;-64
2022/10/20 06:00:50;;;;;;;21.87;19.57;;;12.50;99.90;;;;;;4976108;28;20482;-65
2022/10/20 06:03:18;;;;;;;23.17;19.27;;;12.60;99.90;;;;;;4976835;28;20462;-64
2022/10/20 06:05:45;;;;;;;22.13;19.87;;;12.60;99.90;;;;;;4976465;28;20461;-62
2022/10/20 06:08:12;;;;;;;20.87;18.70;;;12.60;99.90;;;;;;4976554;28;20538;-64
2022/10/20 06:10:38;;;;;;;20.40;18.27;;;12.60;99.90;;;;;;4975901;28;21044;-65
2022/10/20 06:13:05;;;;;;;19.97;17.97;;;12.60;99.90;;;;;;4975951;28;20961;-64
2022/10/20 06:15:32;;;;;;;22.07;18.53;;;12.50;99.90;;;;;;4976329;28;20462;-64
2022/10/20 06:17:59;;;;;;;19.60;17.73;;;12.60;99.90;;;;;;4976258;28;20509;-64
2022/10/20 06:20:27;;;;;;;20.30;16.50;;;12.60;99.90;;;;;;4976081;28;20459;-64
2022/10/20 06:22:54;;;;;;;19.50;17.40;;;12.60;99.90;;;;;;4976199;28;20455;-64
2022/10/20 06:25:20;;;;;;;18.30;16.40;;;12.70;99.90;;;;;;4976023;28;20458;-64
2022/10/20 06:27:47;;;;;;;18.60;16.80;;;12.70;99.90;;;;;;4975920;28;20459;-64
2022/10/20 06:30:13;;;;;;;17.57;15.77;;;12.80;99.90;;;;;;4975694;28;21012;-64
2022/10/20 06:32:40;;;;;;;17.07;15.40;;;12.80;99.90;;;;;;4975939;28;20458;-64
2022/10/20 06:35:07;;;;;;;17.07;15.47;;;12.80;99.90;;;;;;4975890;28;20459;-64
2022/10/20 06:37:35;;;;;;;17.73;15.13;;;12.80;99.90;;;;;;4975582;28;20465;-63
2022/10/20 06:40:02;;;;;;;17.67;15.87;;;12.80;99.90;;;;;;4975820;28;20501;-63
2022/10/20 06:42:28;;;;;;;16.90;15.10;;;12.90;99.90;;;;;;4975403;28;21044;-63
2022/10/20 06:44:57;;;;;;;16.30;14.60;;;13.00;99.90;;;;;;4975981;28;20455;-63
2022/10/20 06:47:24;;;;;;;16.50;14.67;;;13.00;99.90;;;;;;4975684;28;20459;-64
2022/10/20 06:49:50;;;;;;;16.23;14.63;;;13.10;99.90;;;;;;4975151;28;20478;-63
2022/10/20 06:52:17;;;;;;;16.03;14.43;;;13.20;99.90;;;;;;4975494;28;20474;-64
2022/10/20 06:54:45;;;;;;;15.00;13.50;;;13.20;99.90;;;;;;4975561;28;20513;-63
2022/10/20 06:57:12;;;;;;;14.60;13.17;;;13.30;99.90;;;;;;4975574;28;20462;-63
2022/10/20 06:59:38;;;;;;;14.13;12.83;;;13.50;99.90;;;;;;4975441;28;20447;-64
2022/10/20 07:02:05;;;;;;;14.97;13.47;;;13.60;99.90;;;;;;4974953;28;21074;-64
2022/10/20 07:04:32;;;;;;;13.93;12.37;;;13.70;99.90;;;;;;4975109;28;20869;-64
2022/10/20 07:06:58;;;;;;;14.00;12.57;;;13.70;99.90;;;;;;4975201;28;20946;-63
2022/10/20 07:09:25;;;;;;;13.10;11.80;;;13.90;99.90;;;;;;4975187;28;20529;-63
2022/10/20 07:11:53;;;;;;;12.30;10.53;;;14.20;99.90;;;;;;4975234;28;20483;-65
2022/10/20 07:14:20;;;;;;;11.60;10.60;;;14.50;99.90;;;;;;4975285;28;20946;-64
2022/10/20 07:16:47;;;;;;;10.37;9.47;;;15.00;99.90;;;;;;4975078;28;20873;-64
2022/10/20 07:19:14;;;;;;;10.53;9.63;;;15.50;99.90;;;;;;4975380;28;20498;-63
2022/10/20 07:21:40;;;;;;;11.10;10.00;;;15.80;99.90;;;;;;4974996;28;20474;-64
2022/10/20 07:24:08;;;;;;;12.10;10.83;;;16.00;99.90;;;;;;4975102;28;20459;-64
2022/10/20 07:26:36;;;;;;;9.47;8.67;;;16.30;99.90;;;;;;4974991;28;20454;-64
2022/10/20 07:29:04;;;;;;;10.97;10.00;;;16.70;99.90;;;;;;4974720;28;21052;-64
2022/10/20 07:31:34;;;;;;;11.00;10.00;;;17.00;99.90;;;;;;4974763;28;20474;-64
2022/10/20 07:34:02;;;;;;;9.77;8.87;;;17.20;99.90;;;;;;4975364;28;20459;-64
2022/10/20 07:36:31;;;;;;;8.87;8.07;;;17.30;99.90;;;;;;4975416;28;20583;-64
2022/10/20 07:38:59;;;;;;;9.77;8.83;;;17.40;99.90;;;;;;4974864;28;20450;-64
2022/10/20 07:41:27;;;;;;;26.93;10.30;;;17.50;99.90;;;;;;4974918;28;20798;-63
2022/10/20 07:43:54;;;;;;;9.50;8.70;;;17.50;99.90;;;;;;4975071;28;20462;-65
2022/10/20 07:46:22;;;;;;;9.83;8.87;;;17.60;99.90;;;;;;4975098;28;20867;-65
2022/10/20 07:48:50;;;;;;;8.80;8.00;;;17.90;99.90;;;;;;4974726;28;20998;-64
2022/10/20 07:51:24;;;;;;;8.07;7.37;;;18.20;99.90;;;;;;4975685;28;20474;-64
2022/10/20 07:53:52;;;;;;;8.67;7.97;;;18.60;99.90;;;;;;4980513;28;20462;-65
2022/10/20 07:56:19;;;;;;;9.30;8.40;;;19.00;99.90;;;;;;4978801;28;20458;-65
2022/10/20 07:58:46;;;;;;;10.30;8.20;;;19.20;99.90;;;;;;4974854;28;20457;-65
2022/10/20 08:01:13;;;;;;;10.07;8.97;;;19.20;99.90;;;;;;4974677;28;20486;-66
2022/10/20 08:03:41;;;;;;;9.40;7.50;;;19.30;99.90;;;;;;4974730;28;20505;-65
2022/10/20 08:06:07;;;;;;;8.17;7.57;;;19.20;99.90;;;;;;4974663;28;20583;-64
2022/10/20 08:08:34;;;;;;;8.70;7.80;;;18.90;99.90;;;;;;4974189;28;20871;-65
2022/10/20 08:11:01;;;;;;;7.20;6.70;;;18.90;99.90;;;;;;4974804;28;20475;-64
2022/10/20 08:13:29;;;;;;;7.10;6.13;;;19.00;99.90;;;;;;4974736;28;20517;-64
2022/10/20 08:15:56;;;;;;;8.40;7.77;;;19.30;99.90;;;;;;4974819;28;20489;-64
2022/10/20 08:18:22;;;;;;;7.67;7.07;;;19.90;99.90;;;;;;4974623;28;20815;-63
2022/10/20 08:20:50;;;;;;;6.93;6.33;;;20.50;99.90;;;;;;4974703;28;20532;-63
2022/10/20 08:23:17;;;;;;;6.90;6.40;;;21.00;99.90;;;;;;4974729;28;20459;-64
2022/10/20 08:25:44;;;;;;;7.23;6.57;;;21.40;99.90;;;;;;4974729;28;20865;-64
2022/10/20 08:28:10;;;;;;;9.70;6.60;;;21.90;99.90;;;;;;4974681;28;20458;-64
2022/10/20 08:30:37;;;;;;;6.53;6.03;;;22.40;99.90;;;;;;4974365;28;20494;-64
2022/10/20 08:33:04;;;;;;;6.07;5.67;;;22.80;99.90;;;;;;4974657;28;20459;-64
2022/10/20 08:35:30;;;;;;;6.20;5.80;;;22.80;99.90;;;;;;4975081;28;20458;-64
2022/10/20 08:37:58;;;;;;;6.13;5.70;;;22.80;99.90;;;;;;4974696;28;20459;-64
2022/10/20 08:40:28;;;;;;;6.00;5.40;;;22.90;99.90;;;;;;4974166;28;20451;-64
2022/10/20 08:42:55;;;;;;;6.93;6.33;;;22.80;99.90;;;;;;4974554;28;20513;-64
2022/10/20 08:45:24;;;;;;;7.20;6.50;;;22.90;99.90;;;;;;4974378;28;20458;-64
2022/10/20 08:47:54;;;;;;;7.40;5.90;;;23.20;99.90;;;;;;4974373;28;20459;-64
2022/10/20 08:50:21;;;;;;;6.80;6.17;;;23.60;99.90;;;;;;4974227;28;20486;-64
2022/10/20 08:52:52;;;;;;;5.27;4.87;;;23.90;99.90;;;;;;4977587;28;20458;-64
2022/10/20 08:55:26;;;;;;;5.93;5.43;;;24.00;99.90;;;;;;4977783;28;20443;-65
2022/10/20 08:57:58;;;;;;;5.10;4.80;;;23.80;99.90;;;;;;4978257;28;20522;-64
2022/10/20 09:00:25;;;;;;;5.80;4.60;;;24.10;99.90;;;;;;4977441;28;20506;-64
2022/10/20 09:02:53;;;;;;;5.07;4.60;;;24.40;99.90;;;;;;4977787;28;20443;-64
2022/10/20 09:05:24;;;;;;;7.40;4.70;;;24.50;99.90;;;;;;4977687;28;20508;-64
2022/10/20 09:07:51;;;;;;;4.93;4.63;;;25.10;99.90;;;;;;4977520;28;20474;-64
2022/10/20 09:10:27;;;;;;;4.87;4.53;;;25.50;99.80;;;;;;4977415;28;20537;-65
2022/10/20 09:12:53;;;;;;;5.10;4.40;;;26.10;98.30;;;;;;4977596;28;20497;-65
2022/10/20 09:15:22;;;;;;;5.20;4.80;;;26.40;97.20;;;;;;4977467;28;20509;-65
2022/10/20 09:17:51;;;;;;;4.80;4.40;;;26.70;95.80;;;;;;4977488;28;20490;-65
2022/10/20 09:20:21;;;;;;;4.50;4.20;;;26.70;95.20;;;;;;4977043;28;20793;-64
2022/10/20 09:22:48;;;;;;;4.53;4.20;;;27.00;94.30;;;;;;4977396;28;20443;-65
2022/10/20 09:25:17;;;;;;;4.70;4.40;;;27.10;93.50;;;;;;4977278;28;20455;-65
2022/10/20 09:27:46;;;;;;;4.70;4.27;;;27.30;92.80;;;;;;4977338;28;20513;-65
2022/10/20 09:30:18;;;;;;;5.23;4.50;;;27.60;92.50;;;;;;4977352;28;20486;-65
2022/10/20 09:32:45;;;;;;;5.63;5.13;;;27.80;91.80;;;;;;4977269;28;20455;-65
2022/10/20 09:35:18;;;;;;;4.73;4.37;;;27.70;90.80;;;;;;4977171;28;20506;-65
2022/10/20 09:37:50;;;;;;;4.97;4.67;;;27.70;91.10;;;;;;4977211;28;20906;-64
2022/10/20 09:40:18;;;;;;;5.57;5.27;;;27.40;90.60;;;;;;4976979;28;20439;-64
2022/10/20 09:42:50;;;;;;;4.60;4.30;;;27.00;90.50;;;;;;4976842;28;20442;-65
2022/10/20 09:45:21;;;;;;;18.70;9.77;;;26.60;91.50;;;;;;4976835;28;20443;-64
2022/10/20 09:47:52;;;;;;;6.37;4.97;;;26.40;92.20;;;;;;4977354;28;20525;-65
2022/10/20 09:50:26;;;;;;;4.40;4.10;;;26.30;92.00;;;;;;4977389;28;20525;-64
2022/10/20 09:52:54;;;;;;;10.03;4.97;;;26.10;92.60;;;;;;4976569;28;20918;-64
2022/10/20 09:55:28;;;;;;;5.23;4.93;;;25.80;93.20;;;;;;4976882;28;20498;-64
2022/10/20 09:57:59;;;;;;;4.77;4.27;;;25.60;94.00;;;;;;4976969;28;20442;-64
2022/10/20 10:00:30;;;;;;;7.43;4.93;;;25.10;94.50;;;;;;4976494;28;20455;-63
2022/10/20 10:03:18;;;;;;;7.60;5.83;;;24.80;95.30;;;;;;4975951;28;20926;-64
2022/10/20 10:05:45;;;;;;;6.83;5.60;;;24.00;95.80;;;;;;4976448;28;20446;-63
2022/10/20 10:08:14;;;;;;;5.90;5.30;;;23.60;97.10;;;;;;4976662;28;20459;-64
2022/10/20 10:10:43;;;;;;;6.00;5.50;;;23.00;99.60;;;;;;4976669;28;20571;-65
2022/10/20 10:13:23;;;;;;;6.23;5.70;;;22.40;99.90;;;;;;4977120;28;20509;-63
2022/10/20 10:16:03;;;;;;;6.00;5.60;;;22.00;99.90;;;;;;4976738;28;20439;-64
2022/10/20 10:18:30;;;;;;;6.37;5.80;;;21.60;99.90;;;;;;4976932;28;20473;-64
2022/10/20 10:20:59;;;;;;;5.77;5.33;;;21.30;99.90;;;;;;4976217;28;20478;-64
2022/10/20 10:23:27;;;;;;;6.77;5.37;;;21.10;99.90;;;;;;4975857;28;20497;-64
2022/10/20 10:25:54;;;;;;;7.40;6.80;;;21.00;99.90;;;;;;4975923;28;20845;-65
2022/10/20 10:28:32;;;;;;;6.30;5.20;;;20.90;99.90;;;;;;4976336;28;20439;-64
2022/10/20 10:31:20;;;;;;;5.97;5.47;;;20.90;99.90;;;;;;4976057;28;20493;-64
2022/10/20 10:33:48;;;;;;;5.50;4.97;;;20.80;99.90;;;;;;4976010;28;20586;-65
2022/10/20 10:36:27;;;;;;;5.70;5.20;;;20.70;99.90;;;;;;4976055;28;20459;-63
2022/10/20 10:38:55;;;;;;;4.93;4.53;;;20.70;99.90;;;;;;4976003;28;20501;-63
2022/10/20 10:41:32;;;;;;;6.13;4.93;;;20.70;99.90;;;;;;4975668;28;21053;-64
2022/10/20 10:44:09;;;;;;;4.87;4.40;;;20.80;99.90;;;;;;4976022;28;20450;-63
2022/10/20 10:46:38;;;;;;;5.33;4.93;;;20.70;99.90;;;;;;4979335;28;20446;-63
2022/10/20 10:49:32;;;;;;;4.90;4.50;;;20.60;99.90;;;;;;4980957;28;20486;-64
2022/10/20 10:52:10;;;;;;;6.20;5.70;;;20.50;99.90;;;;;;4976072;28;20471;-64
2022/10/20 10:54:53;;;;;;;6.10;5.23;;;20.20;99.90;;;;;;4975791;28;20443;-64
2022/10/20 10:57:29;;;;;;;6.70;6.20;;;20.20;99.90;;;;;;4976158;28;20439;-64
2022/10/20 11:00:00;;;;;;;6.90;6.40;;;20.00;99.90;;;;;;4975646;28;20439;-63
2022/10/20 11:02:46;;;;;;;7.13;6.47;;;20.00;99.90;;;;;;4975177;28;20504;-63
2022/10/20 11:05:25;;;;;;;7.43;6.77;;;20.00;99.90;;;;;;4975520;28;20439;-63
2022/10/20 11:08:01;;;;;;;7.30;6.70;;;19.90;99.90;;;;;;4975450;28;20442;-64
2022/10/20 11:10:35;;;;;;;12.60;7.23;;;19.90;99.90;;;;;;4975303;28;21032;-63
2022/10/20 11:13:12;;;;;;;9.20;6.00;;;19.60;99.90;;;;;;4975337;28;20451;-64
2022/10/20 11:15:55;;;;;;;5.93;5.53;;;19.30;99.90;;;;;;4974807;28;20902;-63
2022/10/20 11:18:41;;;;;;;6.40;5.90;;;19.10;99.90;;;;;;4975386;28;20521;-63
2022/10/20 11:21:20;;;;;;;6.03;5.50;;;19.00;99.90;;;;;;4975221;28;20521;-63
2022/10/20 11:24:09;;;;;;;4.97;4.57;;;18.90;99.90;;;;;;4975220;28;20477;-63
2022/10/20 11:26:38;;;;;;;6.57;5.30;;;18.90;99.90;;;;;;4975231;28;20509;-63
2022/10/20 11:29:11;;;;;;;6.33;5.10;;;19.00;99.90;;;;;;4975182;28;21000;-64
2022/10/20 11:31:46;;;;;;;5.83;5.33;;;19.00;99.90;;;;;;4975074;28;20486;-64
2022/10/20 11:34:18;;;;;;;6.40;5.80;;;19.00;99.90;;;;;;4975102;28;20443;-64
2022/10/20 11:36:49;;;;;;;6.80;5.43;;;19.00;99.90;;;;;;4975014;28;20515;-63
2022/10/20 11:39:25;;;;;;;5.90;5.10;;;19.10;99.90;;;;;;4975016;28;20431;-63
2022/10/20 11:41:56;;;;;;;8.20;4.93;;;19.10;99.90;;;;;;4975598;28;20478;-63
2022/10/20 11:44:28;;;;;;;5.63;5.13;;;19.10;99.90;;;;;;4975352;28;20454;-63
2022/10/20 11:47:00;;;;;;;5.47;4.97;;;19.10;99.90;;;;;;4974657;28;20910;-65
2022/10/20 11:49:28;;;;;;;5.53;5.10;;;19.10;99.90;;;;;;4974683;28;20933;-63
2022/10/20 11:52:38;;;;;;;9.63;4.60;;;19.20;99.90;;;;;;4974946;28;20477;-63
2022/10/20 11:55:20;;;;;;;5.60;5.17;;;19.20;99.90;;;;;;4975097;28;20454;-64
2022/10/20 11:58:01;;;;;;;5.20;4.80;;;19.30;99.90;;;;;;4974931;28;20435;-63
2022/10/20 12:00:48;;;;;;;9.70;5.80;;;19.30;99.90;;;;;;4974702;28;20466;-64
2022/10/20 12:03:51;;;;;;;6.20;5.20;;;19.20;99.90;;;;;;4975724;28;20442;-65
2022/10/20 12:06:41;;;;;;;6.23;4.90;;;19.10;99.90;;;;;;4974973;28;20442;-63
2022/10/20 12:09:46;;;;;;;5.57;5.07;;;19.00;99.90;;;;;;4946376;28;20793;-64
2022/10/20 12:12:17;;;;;;;4.90;4.50;;;19.00;99.90;;;;;;4947880;28;20839;-63
2022/10/20 12:14:47;;;;;;;9.53;5.30;;;19.10;99.90;;;;;;4974844;28;20443;-63
2022/10/20 12:17:29;;;;;;;5.80;4.70;;;19.00;99.90;;;;;;4976460;28;20443;-64
2022/10/20 12:20:29;;;;;;;5.63;5.13;;;19.00;99.90;;;;;;4977801;28;20438;-63
2022/10/20 12:22:58;;;;;;;5.13;4.60;;;19.00;99.90;;;;;;4974835;28;20534;-63
2022/10/20 12:25:36;;;;;;;5.60;4.67;;;18.90;99.90;;;;;;4975891;28;20454;-63
2022/10/20 12:28:48;;;;;;;5.30;4.60;;;18.80;99.90;;;;;;4978359;28;20906;-63
2022/10/20 12:31:15;;;;;;;5.77;5.37;;;18.80;99.90;;;;;;4943390;28;20890;-64
2022/10/20 12:34:00;;;;;;;5.97;5.47;;;18.90;99.90;;;;;;4978295;28;20858;-63
2022/10/20 12:36:33;;;;;;;5.00;4.60;;;18.80;99.90;;;;;;4978333;28;20529;-64
2022/10/20 12:39:23;;;;;;;5.60;5.13;;;18.80;99.90;;;;;;4978326;28;20438;-63
2022/10/20 12:41:59;;;;;;;5.50;4.90;;;18.80;99.90;;;;;;4973780;28;20500;-63
2022/10/20 12:44:29;;;;;;;6.43;4.90;;;18.70;99.90;;;;;;4978539;28;20445;-63
2022/10/20 12:46:58;;;;;;;5.90;5.40;;;18.70;99.90;;;;;;4978344;28;20497;-63
2022/10/20 12:49:30;;;;;;;5.57;4.90;;;18.80;99.90;;;;;;4978120;28;20458;-63
2022/10/20 12:51:59;;;;;;;5.70;4.60;;;18.80;99.90;;;;;;4977998;28;20544;-63
2022/10/20 12:54:33;;;;;;;8.53;4.60;;;18.80;99.90;;;;;;4978018;28;20527;-63
2022/10/20 12:57:04;;;;;;;9.90;5.13;;;18.80;99.90;;;;;;4978043;28;20489;-65
2022/10/20 12:59:37;;;;;;;5.73;4.30;;;18.90;99.90;;;;;;4977957;28;20443;-64
2022/10/20 13:02:45;;;;;;;4.77;4.37;;;18.90;99.90;;;;;;4977438;28;20484;-63
2022/10/20 13:05:40;;;;;;;8.90;5.10;;;18.90;99.90;;;;;;4977823;28;20434;-65
2022/10/20 13:08:25;;;;;;;6.53;5.10;;;18.90;99.90;;;;;;4977656;28;20490;-63
2022/10/20 13:10:54;;;;;;;8.60;5.80;;;18.80;99.90;;;;;;4977386;28;20532;-63
2022/10/20 13:13:56;;;;;;;6.90;6.30;;;18.80;99.90;;;;;;4977614;28;20509;-63
2022/10/20 13:16:23;;;;;;;8.20;7.40;;;18.70;99.90;;;;;;4977627;28;20439;-64
2022/10/20 13:18:53;;;;;;;8.17;7.37;;;18.50;99.90;;;;;;4977426;28;20505;-65
2022/10/20 13:21:26;;;;;;;7.47;6.80;;;18.30;99.90;;;;;;4977198;28;21028;-64
2022/10/20 13:24:02;;;;;;;8.57;7.67;;;18.10;99.90;;;;;;4977467;28;20438;-64
2022/10/20 13:26:35;;;;;;;9.00;8.10;;;17.90;99.90;;;;;;4977400;28;20443;-64
2022/10/20 13:29:02;;;;;;;11.50;9.60;;;17.70;99.90;;;;;;4977388;28;20436;-64
2022/10/20 13:31:34;;;;;;;9.63;7.73;;;17.60;99.90;;;;;;4977210;28;20478;-64
2022/10/20 13:34:11;;;;;;;8.30;7.67;;;17.50;99.90;;;;;;4977404;28;20494;-64
2022/10/20 13:36:55;;;;;;;8.20;7.60;;;17.40;99.90;;;;;;4976383;28;20442;-64
2022/10/20 13:39:31;;;;;;;9.10;8.20;;;17.30;99.90;;;;;;4977038;28;20439;-63
2022/10/20 13:42:09;;;;;;;9.87;8.97;;;17.20;99.90;;;;;;4980864;28;20467;-64
2022/10/20 13:44:47;;;;;;;11.70;8.73;;;17.10;99.90;;;;;;4982708;28;20919;-64
2022/10/20 13:47:41;;;;;;;8.53;7.73;;;17.10;99.90;;;;;;4976975;28;20493;-64
2022/10/20 13:50:11;;;;;;;8.50;7.80;;;17.20;99.90;;;;;;4977395;28;20447;-64
2022/10/20 13:52:42;;;;;;;9.40;8.00;;;17.20;99.90;;;;;;4977430;28;20478;-64
2022/10/20 13:55:16;;;;;;;9.40;8.60;;;17.20;99.90;;;;;;4977254;28;20497;-63
2022/10/20 13:57:51;;;;;;;11.53;7.70;;;17.20;99.90;;;;;;4977242;28;20438;-63
2022/10/20 14:00:20;;;;;;;9.10;8.20;;;17.20;99.90;;;;;;4976674;28;20472;-64
2022/10/20 14:03:00;;;;;;;8.80;7.80;;;17.20;99.90;;;;;;4976592;28;20973;-64
2022/10/20 14:05:29;;;;;;;8.77;7.83;;;17.20;99.90;;;;;;4976789;28;20447;-63
2022/10/20 14:07:56;;;;;;;9.10;8.30;;;17.30;99.90;;;;;;4976664;28;20514;-63
2022/10/20 14:10:26;;;;;;;10.10;9.23;;;17.40;99.90;;;;;;4976862;28;20509;-63
2022/10/20 14:12:55;;;;;;;12.07;7.50;;;17.50;99.90;;;;;;4976598;28;20446;-64
2022/10/20 14:15:28;;;;;;;9.83;9.03;;;17.50;99.90;;;;;;4976694;28;20486;-63
2022/10/20 14:17:56;;;;;;;13.23;9.80;;;17.50;99.90;;;;;;4976473;28;20443;-64
2022/10/20 14:20:24;;;;;;;8.90;8.00;;;17.50;99.90;;;;;;4976290;28;20455;-63
2022/10/20 14:22:52;;;;;;;12.03;7.53;;;17.60;99.90;;;;;;4977126;28;20506;-63
2022/10/20 14:25:20;;;;;;;9.00;8.20;;;17.70;99.90;;;;;;4976173;28;20455;-65
2022/10/20 14:27:50;;;;;;;8.77;7.90;;;17.70;99.90;;;;;;4976324;28;20458;-63
2022/10/20 14:30:19;;;;;;;9.93;8.10;;;17.70;99.90;;;;;;4976051;28;20463;-63
2022/10/20 14:32:47;;;;;;;9.53;8.80;;;17.70;99.90;;;;;;4976087;28;20466;-63
2022/10/20 14:35:25;;;;;;;9.33;8.50;;;17.70;99.90;;;;;;4976101;28;20513;-64
2022/10/20 14:37:57;;;;;;;10.93;8.83;;;17.70;99.90;;;;;;4976630;28;20448;-63
2022/10/20 14:40:27;;;;;;;9.80;8.80;;;17.70;99.90;;;;;;4976185;28;20442;-63
2022/10/20 14:42:59;;;;;;;10.27;9.33;;;17.60;99.90;;;;;;4976121;28;20529;-64
2022/10/20 14:45:28;;;;;;;9.37;8.47;;;17.60;99.90;;;;;;4976226;28;20443;-64
2022/10/20 14:47:56;;;;;;;9.50;8.70;;;17.50;99.90;;;;;;4975753;28;20800;-65
2022/10/20 14:50:26;;;;;;;9.50;8.80;;;17.50;99.90;;;;;;4975580;28;20965;-63
2022/10/20 14:52:53;;;;;;;10.40;8.23;;;17.50;99.90;;;;;;4976073;28;20602;-65
2022/10/20 14:55:34;;;;;;;10.33;9.33;;;17.40;99.90;;;;;;4976016;28;20459;-65
2022/10/20 14:58:01;;;;;;;9.37;8.47;;;17.40;99.90;;;;;;4975979;28;20455;-64
2022/10/20 15:00:34;;;;;;;10.70;9.87;;;17.30;99.90;;;;;;4975343;28;20487;-65
2022/10/20 15:03:05;;;;;;;10.87;9.70;;;17.40;99.90;;;;;;4975692;28;20439;-64
2022/10/20 15:05:41;;;;;;;9.90;8.90;;;17.40;99.90;;;;;;4976662;28;20538;-63
2022/10/20 15:08:11;;;;;;;11.70;10.30;;;17.30;99.90;;;;;;4976108;28;20442;-64
2022/10/20 15:10:38;;;;;;;10.40;9.60;;;17.30;99.90;;;;;;4976048;28;20478;-63
2022/10/20 15:13:05;;;;;;;11.00;10.00;;;17.30;99.90;;;;;;4979338;28;20455;-63
2022/10/20 15:15:38;;;;;;;11.27;10.17;;;17.30;99.90;;;;;;4975886;28;20521;-63
2022/10/20 15:18:13;;;;;;;12.73;11.50;;;17.30;99.90;;;;;;4975523;28;20450;-63
2022/10/20 15:20:41;;;;;;;11.63;10.47;;;17.20;99.90;;;;;;4974715;28;20474;-64
2022/10/20 15:23:10;;;;;;;11.97;10.97;;;17.20;99.90;;;;;;4975280;28;20454;-65
2022/10/20 15:25:42;;;;;;;11.93;10.73;;;17.20;99.90;;;;;;4975027;28;20490;-64
2022/10/20 15:28:27;;;;;;;10.20;9.37;;;17.20;99.90;;;;;;4975466;28;20443;-64
2022/10/20 15:30:55;;;;;;;10.23;9.43;;;17.20;99.90;;;;;;4976124;28;20824;-64
2022/10/20 15:33:22;;;;;;;12.30;11.00;;;17.20;99.90;;;;;;4975463;28;20505;-65
2022/10/20 15:35:49;;;;;;;13.03;11.80;;;17.10;99.90;;;;;;4975211;28;20486;-64
2022/10/20 15:38:16;;;;;;;12.40;11.20;;;17.10;99.90;;;;;;4975170;28;20482;-63
2022/10/20 15:40:43;;;;;;;13.60;12.37;;;17.10;99.90;;;;;;4975033;28;20986;-63
2022/10/20 15:43:12;;;;;;;11.40;10.50;;;17.20;99.90;;;;;;4975151;28;20462;-64
2022/10/20 15:45:42;;;;;;;12.47;11.37;;;17.20;99.90;;;;;;4975202;28;20450;-64
2022/10/20 15:48:10;;;;;;;11.10;10.20;;;17.20;99.90;;;;;;4975186;28;20501;-64
2022/10/20 15:50:38;;;;;;;11.27;10.40;;;17.20;99.90;;;;;;4975263;28;20811;-63
2022/10/20 15:53:05;;;;;;;11.20;10.10;;;17.20;99.90;;;;;;4975550;28;20451;-64
2022/10/20 15:55:34;;;;;;;10.53;9.73;;;17.20;99.90;;;;;;4975226;28;20458;-64
2022/10/20 15:58:01;;;;;;;12.43;11.13;;;17.20;99.90;;;;;;4975081;28;20823;-64
2022/10/20 16:00:29;;;;;;;11.27;10.30;;;17.20;99.90;;;;;;4976108;28;20532;-64
2022/10/20 16:02:56;;;;;;;13.63;10.40;;;17.10;99.90;;;;;;4978966;28;20443;-64
2022/10/20 16:05:25;;;;;;;10.97;10.00;;;17.10;99.90;;;;;;4979014;28;20513;-65
2022/10/20 16:07:53;;;;;;;11.23;10.23;;;17.10;99.90;;;;;;4978915;28;20454;-64
2022/10/20 16:10:21;;;;;;;11.37;10.33;;;17.00;99.90;;;;;;4978575;28;20879;-64
2022/10/20 16:12:48;;;;;;;10.00;9.10;;;17.00;99.90;;;;;;4978779;28;20474;-64
2022/10/20 16:15:15;;;;;;;14.40;10.20;;;17.10;99.90;;;;;;4979717;28;20462;-64
2022/10/20 16:17:42;;;;;;;11.23;9.77;;;17.10;99.90;;;;;;4981131;28;21032;-63
2022/10/20 16:20:09;;;;;;;10.70;9.60;;;17.00;99.90;;;;;;4980115;28;20485;-64
2022/10/20 16:22:37;;;;;;;10.70;9.80;;;17.00;99.90;;;;;;4978468;28;20982;-65
2022/10/20 16:25:05;;;;;;;10.57;9.57;;;17.00;99.90;;;;;;4978353;28;20505;-65
2022/10/20 16:27:33;;;;;;;10.23;9.40;;;17.00;99.90;;;;;;4978301;28;20466;-64
2022/10/20 16:30:02;;;;;;;11.83;10.63;;;17.00;99.90;;;;;;4978397;28;20454;-65
2022/10/20 16:32:28;;;;;;;11.40;10.50;;;17.00;99.90;;;;;;4978278;28;20565;-64
2022/10/20 16:34:56;;;;;;;11.73;10.53;;;17.00;99.90;;;;;;4979255;28;20462;-64
2022/10/20 16:37:23;;;;;;;10.00;9.10;;;16.90;99.90;;;;;;4980248;28;20466;-64
2022/10/20 16:39:51;;;;;;;10.90;9.97;;;16.90;99.90;;;;;;4978922;28;20454;-64
2022/10/20 16:42:18;;;;;;;10.47;9.47;;;16.90;99.90;;;;;;4978069;28;20886;-66
2022/10/20 16:44:45;;;;;;;12.83;10.17;;;16.90;99.90;;;;;;4977858;28;20960;-65
2022/10/20 16:47:12;;;;;;;11.40;10.30;;;17.00;99.90;;;;;;4978130;28;20916;-66
2022/10/20 16:49:38;;;;;;;11.23;10.23;;;16.90;99.90;;;;;;4978051;28;20458;-66
2022/10/20 16:52:05;;;;;;;11.83;10.83;;;17.00;99.90;;;;;;4977805;28;20536;-66
2022/10/20 16:54:31;;;;;;;11.03;9.93;;;16.90;99.90;;;;;;4977858;28;20458;-66
2022/10/20 16:56:59;;;;;;;12.17;10.97;;;16.90;99.90;;;;;;4977935;28;20466;-66
2022/10/20 16:59:26;;;;;;;12.07;10.97;;;16.90;99.90;;;;;;4977399;28;20978;-66